Time;durP1;ratioP1;P1;durP2;ratioP2;P2;SDS_P1;SDS_P2;PMS_P1;PMS_P2;Temp;Humidity;BMP_temperature;BMP_pressure;BME280_temperature;BME280_humidity;BME280_pressure;Samples;Min_cycle;Max_cycle;Signal;HPM_P1;HPM_P2
2021/07/29 00:00:40;;;;;;;10.93;9.93;;;17.60;90.50;;;;;;5026428;28;20201;-54
2021/07/29 00:03:06;;;;;;;10.20;9.23;;;17.60;90.70;;;;;;5024158;28;20183;-50
2021/07/29 00:05:33;;;;;;;9.77;8.90;;;17.60;91.00;;;;;;5028087;28;20186;-53
2021/07/29 00:07:59;;;;;;;9.93;9.03;;;17.60;94.10;;;;;;5029084;28;20660;-53
2021/07/29 00:10:26;;;;;;;10.67;9.43;;;17.60;93.40;;;;;;5026207;28;20490;-54
2021/07/29 00:12:51;;;;;;;10.30;9.40;;;17.60;94.60;;;;;;5028658;28;20198;-50
2021/07/29 00:15:17;;;;;;;10.97;9.90;;;17.60;95.00;;;;;;5029212;28;20957;-50
2021/07/29 00:20:12;;;;;;;11.00;8.67;;;17.50;98.60;;;;;;5025172;28;21332;-48
2021/07/29 00:22:39;;;;;;;10.60;9.60;;;17.50;99.90;;;;;;5012127;28;20470;-48
2021/07/29 00:25:07;;;;;;;9.93;9.10;;;17.50;99.20;;;;;;5024175;28;20444;-50
2021/07/29 00:27:35;;;;;;;10.43;9.40;;;17.40;99.90;;;;;;5028941;28;20484;-51
2021/07/29 00:30:01;;;;;;;10.67;9.67;;;17.40;99.90;;;;;;5027585;28;20848;-50
2021/07/29 00:32:26;;;;;;;12.43;9.50;;;17.50;99.90;;;;;;5028979;28;20578;-51
2021/07/29 00:34:52;;;;;;;10.13;9.30;;;17.50;99.90;;;;;;5028605;28;20194;-51
2021/07/29 00:37:17;;;;;;;10.47;9.47;;;17.40;99.90;;;;;;5024900;28;20208;-49
2021/07/29 00:39:43;;;;;;;10.20;9.30;;;17.40;99.90;;;;;;5021808;28;20205;-53
2021/07/29 00:42:09;;;;;;;10.20;9.30;;;17.40;99.90;;;;;;5026529;28;20186;-55
2021/07/29 00:44:34;;;;;;;10.52;9.52;;;17.50;99.90;;;;;;5028949;28;20191;-52
2021/07/29 00:47:01;;;;;;;10.83;9.93;;;17.60;99.90;;;;;;5028183;28;20202;-52
2021/07/29 00:49:27;;;;;;;10.90;9.90;;;17.60;99.90;;;;;;5017621;28;20240;-54
2021/07/29 00:51:53;;;;;;;8.80;8.07;;;17.70;99.90;;;;;;5028282;28;20784;-55
2021/07/29 00:54:18;;;;;;;10.47;8.97;;;17.70;99.10;;;;;;5028543;28;20425;-52
2021/07/29 00:56:45;;;;;;;9.83;8.87;;;17.80;96.00;;;;;;5003792;28;20210;-53
2021/07/29 00:59:11;;;;;;;9.23;8.43;;;17.80;93.80;;;;;;5017961;28;20179;-51
2021/07/29 01:01:37;;;;;;;9.17;8.37;;;17.80;91.70;;;;;;5021086;28;20512;-54
2021/07/29 01:04:03;;;;;;;9.47;8.57;;;17.90;91.10;;;;;;5028593;28;20521;-52
2021/07/29 01:06:28;;;;;;;9.90;8.90;;;17.90;81.90;;;;;;5008548;28;20210;-53
2021/07/29 01:09:14;;;;;;;9.13;8.33;;;18.00;72.70;;;;;;5009851;28;20177;-48
2021/07/29 01:11:42;;;;;;;9.00;8.10;;;18.10;77.20;;;;;;5025948;28;20281;-55
2021/07/29 01:14:08;;;;;;;9.40;8.60;;;18.10;76.60;;;;;;5028245;28;20446;-52
2021/07/29 01:16:34;;;;;;;8.87;8.07;;;18.10;69.20;;;;;;5029932;28;20438;-53
2021/07/29 01:19:00;;;;;;;8.60;7.80;;;18.10;63.40;;;;;;5033752;28;20429;-48
2021/07/29 01:21:31;;;;;;;9.33;8.33;;;18.20;61.60;;;;;;5033228;28;20485;-54
2021/07/29 01:23:57;;;;;;;8.67;7.87;;;18.20;66.90;;;;;;5027009;28;20433;-49
2021/07/29 01:26:23;;;;;;;9.30;8.40;;;18.20;68.80;;;;;;5032202;28;20451;-52
2021/07/29 01:28:49;;;;;;;8.70;7.90;;;18.20;70.00;;;;;;5033401;28;20444;-54
2021/07/29 01:31:15;;;;;;;8.70;8.00;;;18.20;67.60;;;;;;5015982;28;20780;-51
2021/07/29 01:33:41;;;;;;;9.00;8.20;;;18.20;62.80;;;;;;5032914;28;20436;-51
2021/07/29 01:36:07;;;;;;;9.47;8.53;;;18.30;66.20;;;;;;5032824;28;20256;-52
2021/07/29 01:38:32;;;;;;;8.43;7.70;;;18.30;54.90;;;;;;5033060;28;20432;-54
2021/07/29 01:40:58;;;;;;;8.20;7.50;;;18.30;54.90;;;;;;5032348;28;20444;-51
2021/07/29 01:43:24;;;;;;;8.73;8.03;;;18.30;51.60;;;;;;5033808;28;20185;-55
2021/07/29 01:45:50;;;;;;;9.13;8.32;;;18.30;54.60;;;;;;5031459;28;20590;-53
2021/07/29 01:48:15;;;;;;;8.37;7.67;;;18.30;58.50;;;;;;5032291;28;20209;-51
2021/07/29 01:50:43;;;;;;;8.23;7.53;;;18.20;53.90;;;;;;5031886;28;20191;-51
2021/07/29 01:53:09;;;;;;;8.77;8.07;;;18.10;57.90;;;;;;5030999;28;20175;-55
2021/07/29 01:55:34;;;;;;;7.40;6.80;;;18.10;64.70;;;;;;5032633;28;20437;-51
2021/07/29 01:58:00;;;;;;;8.30;7.60;;;18.00;58.90;;;;;;5032258;28;22124;-50
2021/07/29 02:00:25;;;;;;;9.07;8.27;;;17.90;69.60;;;;;;5033031;28;20189;-51
2021/07/29 02:02:51;;;;;;;8.97;8.27;;;17.80;75.20;;;;;;5030942;28;20202;-54
2021/07/29 02:05:16;;;;;;;9.10;8.20;;;17.80;73.00;;;;;;5026961;28;20199;-54
2021/07/29 02:07:42;;;;;;;8.10;7.27;;;17.80;77.40;;;;;;5018276;28;20203;-55
2021/07/29 02:10:08;;;;;;;9.47;8.57;;;17.80;81.90;;;;;;5032631;28;20196;-52
2021/07/29 02:12:34;;;;;;;8.30;7.60;;;17.70;83.80;;;;;;5029290;28;20180;-50
2021/07/29 02:14:59;;;;;;;9.43;8.53;;;17.60;92.00;;;;;;5013614;28;20441;-52
2021/07/29 02:17:25;;;;;;;9.07;8.27;;;17.60;95.50;;;;;;5030744;28;20574;-55
2021/07/29 02:19:51;;;;;;;9.07;8.17;;;17.60;97.70;;;;;;5008704;28;20471;-53
2021/07/29 02:22:16;;;;;;;9.67;8.67;;;17.50;95.30;;;;;;5031412;28;20248;-48
2021/07/29 02:24:42;;;;;;;10.20;9.00;;;17.50;95.30;;;;;;5025475;28;20193;-55
2021/07/29 02:27:07;;;;;;;9.10;8.30;;;17.50;97.50;;;;;;5030056;28;20204;-51
2021/07/29 02:29:33;;;;;;;8.73;7.97;;;17.50;98.90;;;;;;5028334;28;20192;-52
2021/07/29 02:31:58;;;;;;;9.00;8.20;;;17.40;99.40;;;;;;5013952;28;20178;-49
2021/07/29 02:34:24;;;;;;;9.37;8.57;;;17.40;99.90;;;;;;5026494;28;20287;-52
2021/07/29 02:36:50;;;;;;;9.17;8.07;;;17.40;99.90;;;;;;5035312;28;20239;-53
2021/07/29 02:39:16;;;;;;;10.60;9.60;;;17.30;99.90;;;;;;5029298;28;20282;-54
2021/07/29 02:41:41;;;;;;;9.93;8.73;;;17.30;98.20;;;;;;5030422;28;20260;-50
2021/07/29 02:44:07;;;;;;;9.27;8.47;;;17.30;99.10;;;;;;5024276;28;20436;-55
2021/07/29 02:46:33;;;;;;;9.43;8.53;;;17.20;99.90;;;;;;5031101;28;20468;-52
2021/07/29 02:48:58;;;;;;;9.90;9.00;;;17.10;99.90;;;;;;5028133;28;20229;-50
2021/07/29 02:51:24;;;;;;;9.50;8.70;;;17.20;99.90;;;;;;5030448;28;20190;-50
2021/07/29 02:53:49;;;;;;;10.70;9.70;;;17.10;99.90;;;;;;5030206;28;20182;-54
2021/07/29 02:56:15;;;;;;;9.93;9.00;;;17.10;99.90;;;;;;5031108;28;20182;-53
2021/07/29 02:58:41;;;;;;;9.70;8.80;;;16.90;99.90;;;;;;5024543;28;20956;-51
2021/07/29 03:01:06;;;;;;;9.57;8.60;;;16.90;99.90;;;;;;5030471;28;20235;-53
2021/07/29 03:03:32;;;;;;;10.20;9.30;;;16.90;99.90;;;;;;5018792;28;20277;-52
2021/07/29 03:05:57;;;;;;;10.93;9.83;;;16.80;99.90;;;;;;5030734;28;20193;-52
2021/07/29 03:08:23;;;;;;;10.57;9.60;;;16.80;99.90;;;;;;5020372;28;20970;-55
2021/07/29 03:10:48;;;;;;;10.53;9.60;;;16.70;99.90;;;;;;5029352;28;20193;-52
2021/07/29 03:13:15;;;;;;;12.37;9.20;;;16.70;99.90;;;;;;5029545;28;20238;-50
2021/07/29 03:15:40;;;;;;;9.90;9.00;;;16.60;99.90;;;;;;5029571;28;20213;-53
2021/07/29 03:18:06;;;;;;;10.80;9.70;;;16.60;99.90;;;;;;5012354;28;20504;-49
2021/07/29 03:20:32;;;;;;;9.80;8.87;;;16.60;99.90;;;;;;5025337;28;20527;-52
2021/07/29 03:22:58;;;;;;;10.43;9.40;;;16.60;99.90;;;;;;5021785;28;20518;-53
2021/07/29 03:25:24;;;;;;;10.33;9.30;;;16.60;99.90;;;;;;5028226;28;20193;-53
2021/07/29 03:27:49;;;;;;;9.80;8.87;;;16.50;99.90;;;;;;5028986;28;20982;-54
2021/07/29 03:30:15;;;;;;;10.33;9.33;;;16.50;99.90;;;;;;5029482;28;20193;-50
2021/07/29 03:32:40;;;;;;;10.77;9.77;;;16.50;99.90;;;;;;5030369;28;20514;-52
2021/07/29 03:35:06;;;;;;;10.70;9.73;;;16.50;99.90;;;;;;5028778;28;20231;-54
2021/07/29 03:37:32;;;;;;;10.57;9.57;;;16.40;99.90;;;;;;5027424;28;20182;-50
2021/07/29 03:40:04;;;;;;;10.47;9.47;;;16.40;99.90;;;;;;5027449;28;20520;-54
2021/07/29 03:42:34;;;;;;;10.83;9.73;;;16.40;99.90;;;;;;5018192;28;20173;-50
2021/07/29 03:45:00;;;;;;;11.73;10.53;;;16.30;99.90;;;;;;5028231;28;20926;-50
2021/07/29 03:47:26;;;;;;;12.63;10.70;;;16.30;99.90;;;;;;5020047;28;20468;-49
2021/07/29 03:49:52;;;;;;;10.00;9.10;;;16.30;99.90;;;;;;5020851;28;20797;-51
2021/07/29 03:52:18;;;;;;;10.43;9.33;;;16.30;99.90;;;;;;5027369;28;20436;-50
2021/07/29 03:54:44;;;;;;;11.50;10.37;;;16.40;99.90;;;;;;5023772;28;20185;-53
2021/07/29 03:57:10;;;;;;;11.50;9.52;;;16.30;99.90;;;;;;5030287;28;20182;-54
2021/07/29 03:59:38;;;;;;;10.63;8.83;;;16.30;99.90;;;;;;5027526;28;20292;-51
2021/07/29 04:02:10;;;;;;;10.53;9.43;;;16.40;99.90;;;;;;5055978;28;20966;-53
2021/07/29 04:04:38;;;;;;;10.17;9.17;;;16.30;99.90;;;;;;5044301;28;20567;-52
2021/07/29 04:07:04;;;;;;;10.30;9.40;;;16.30;99.90;;;;;;5044589;28;20194;-53
2021/07/29 04:09:29;;;;;;;10.40;9.40;;;16.40;99.90;;;;;;5045980;28;20444;-51
2021/07/29 04:11:55;;;;;;;11.13;9.80;;;16.40;99.90;;;;;;5043060;28;20468;-53
2021/07/29 04:14:20;;;;;;;9.60;8.50;;;16.60;99.90;;;;;;5045686;28;20178;-50
2021/07/29 04:16:46;;;;;;;10.47;9.57;;;16.50;99.90;;;;;;5045446;28;20194;-52
2021/07/29 04:19:11;;;;;;;8.97;8.17;;;16.50;99.90;;;;;;5044903;28;20197;-54
2021/07/29 04:21:37;;;;;;;8.93;8.13;;;16.50;99.90;;;;;;5043597;28;20538;-53
2021/07/29 04:24:03;;;;;;;9.10;8.30;;;16.50;99.90;;;;;;5044385;28;20245;-51
2021/07/29 04:26:28;;;;;;;9.03;8.10;;;16.50;99.90;;;;;;5044947;28;20216;-51
2021/07/29 04:28:54;;;;;;;8.87;8.00;;;16.60;99.90;;;;;;5041628;28;20210;-52
2021/07/29 04:31:19;;;;;;;9.80;8.40;;;16.60;99.90;;;;;;5035890;28;20216;-55
2021/07/29 04:33:45;;;;;;;8.33;7.57;;;16.70;99.90;;;;;;5036095;28;20191;-54
2021/07/29 04:36:11;;;;;;;9.70;7.63;;;16.70;99.90;;;;;;5036940;28;20207;-50
2021/07/29 04:38:36;;;;;;;8.30;7.60;;;16.80;99.90;;;;;;5035673;28;20182;-52
2021/07/29 04:41:05;;;;;;;9.17;8.27;;;16.80;99.90;;;;;;5036763;28;20194;-55
2021/07/29 04:43:31;;;;;;;9.03;8.10;;;16.90;99.90;;;;;;5036769;28;20187;-52
2021/07/29 04:46:01;;;;;;;8.27;7.57;;;16.90;99.90;;;;;;5043415;28;21270;-49
2021/07/29 04:48:27;;;;;;;14.20;7.87;;;17.00;99.90;;;;;;5048990;28;20462;-50
2021/07/29 04:50:52;;;;;;;8.50;7.43;;;17.10;98.50;;;;;;5044973;28;20557;-52
2021/07/29 04:53:18;;;;;;;7.87;7.20;;;17.10;94.80;;;;;;5040497;28;20191;-52
2021/07/29 04:55:43;;;;;;;7.73;7.03;;;17.30;88.80;;;;;;5040968;28;20180;-55
2021/07/29 04:58:09;;;;;;;7.57;6.87;;;17.30;87.60;;;;;;5044922;28;20187;-52
2021/07/29 05:00:34;;;;;;;7.30;6.70;;;17.40;78.30;;;;;;5043432;28;20361;-54
2021/07/29 05:03:00;;;;;;;8.03;7.23;;;17.50;76.10;;;;;;5045556;28;20305;-55
2021/07/29 05:05:25;;;;;;;7.63;6.90;;;17.50;77.70;;;;;;5044684;28;20180;-49
2021/07/29 05:07:54;;;;;;;7.90;7.10;;;17.50;72.00;;;;;;5044933;28;20380;-54
2021/07/29 05:10:19;;;;;;;7.13;6.53;;;17.60;70.80;;;;;;5043662;28;20306;-53
2021/07/29 05:12:45;;;;;;;7.77;7.03;;;17.70;68.00;;;;;;5036065;28;20472;-52
2021/07/29 05:15:11;;;;;;;6.63;6.03;;;17.70;66.30;;;;;;5031427;28;20175;-53
2021/07/29 05:17:36;;;;;;;6.40;5.90;;;17.80;59.60;;;;;;5029828;28;20188;-50
2021/07/29 05:20:02;;;;;;;6.40;5.80;;;17.90;43.20;;;;;;5026244;28;20441;-55
2021/07/29 05:22:28;;;;;;;6.97;6.27;;;18.10;20.00;;;;;;5027937;28;20190;-52
2021/07/29 05:24:53;;;;;;;6.17;5.37;;;18.20;14.60;;;;;;5031771;28;20423;-54
2021/07/29 05:27:19;;;;;;;6.53;5.93;;;18.40;8.30;;;;;;5030651;28;20183;-52
2021/07/29 05:29:45;;;;;;;7.17;5.57;;;18.50;1.00;;;;;;5031325;28;20175;-52
2021/07/29 05:32:10;;;;;;;7.03;6.40;;;18.60;4.10;;;;;;5027121;28;20191;-54
2021/07/29 05:34:36;;;;;;;6.73;6.13;;;18.70;1.00;;;;;;5030793;28;20187;-51
2021/07/29 05:37:01;;;;;;;6.90;6.30;;;18.70;1.00;;;;;;5031522;28;20196;-54
2021/07/29 05:39:27;;;;;;;7.27;6.57;;;18.80;1.00;;;;;;5030139;28;20791;-53
2021/07/29 05:41:53;;;;;;;7.20;6.50;;;18.80;1.00;;;;;;5030848;28;20203;-54
2021/07/29 05:44:18;;;;;;;7.33;6.70;;;18.80;1.00;;;;;;5030653;28;20428;-54
2021/07/29 05:46:44;;;;;;;7.93;6.53;;;18.90;1.00;;;;;;5031146;28;20289;-53
2021/07/29 05:49:09;;;;;;;8.23;6.80;;;19.10;1.00;;;;;;5026151;28;20259;-55
2021/07/29 05:51:35;;;;;;;6.97;6.30;;;19.20;1.00;;;;;;5028265;28;20203;-57
2021/07/29 05:54:00;;;;;;;6.33;5.83;;;19.20;1.00;;;;;;5030741;28;20179;-57
2021/07/29 05:56:28;;;;;;;5.93;5.43;;;19.30;1.00;;;;;;5030839;28;20753;-57
2021/07/29 05:58:54;;;;;;;5.20;4.80;;;19.70;1.00;;;;;;5030971;28;20185;-58
2021/07/29 06:01:22;;;;;;;5.43;5.07;;;20.00;1.00;;;;;;5030329;28;20480;-53
2021/07/29 06:03:47;;;;;;;5.50;4.90;;;20.20;1.00;;;;;;5030785;28;20183;-58
2021/07/29 06:06:13;;;;;;;6.27;5.67;;;20.30;1.00;;;;;;5030046;28;20829;-54
2021/07/29 06:08:38;;;;;;;5.57;5.07;;;20.30;99.90;;;;;;5030660;28;20262;-56
2021/07/29 06:11:04;;;;;;;6.70;5.50;;;20.40;1.00;;;;;;5029991;28;20214;-58
2021/07/29 06:13:31;;;;;;;7.13;6.63;;;20.40;99.90;;;;;;5029289;28;20533;-50
2021/07/29 06:15:59;;;;;;;8.17;7.37;;;20.50;99.90;;;;;;5026522;28;20656;-52
2021/07/29 06:18:24;;;;;;;6.73;6.33;;;20.50;99.90;;;;;;5026978;28;20509;-53
2021/07/29 06:20:50;;;;;;;7.83;7.33;;;20.50;89.90;;;;;;5029623;28;20540;-54
2021/07/29 06:23:15;;;;;;;7.20;6.60;;;20.70;99.90;;;;;;5029161;28;20195;-54
2021/07/29 06:25:41;;;;;;;7.37;6.67;;;20.80;1.00;;;;;;5029021;28;20185;-54
2021/07/29 06:28:14;;;;;;;7.57;7.00;;;20.90;99.90;;;;;;5029563;28;20194;-52
2021/07/29 06:30:43;;;;;;;7.73;7.23;;;20.90;99.90;;;;;;5029448;28;20207;-54
2021/07/29 06:33:09;;;;;;;7.00;6.50;;;20.90;1.00;;;;;;5028857;28;20748;-51
2021/07/29 06:35:34;;;;;;;7.30;6.80;;;21.00;1.00;;;;;;5029568;28;20437;-52
2021/07/29 06:38:00;;;;;;;7.30;6.70;;;21.00;99.90;;;;;;5029090;28;20183;-55
2021/07/29 06:40:25;;;;;;;7.90;7.40;;;21.10;99.90;;;;;;5029346;28;20187;-52
2021/07/29 06:42:51;;;;;;;7.53;6.93;;;21.00;99.90;;;;;;5029240;28;20912;-55
2021/07/29 06:45:16;;;;;;;7.90;7.30;;;21.10;99.90;;;;;;5029272;28;20183;-54
2021/07/29 06:47:42;;;;;;;8.33;7.83;;;21.10;99.90;;;;;;5028878;28;20194;-54
2021/07/29 06:50:08;;;;;;;8.10;7.50;;;21.10;1.00;;;;;;5028934;28;20206;-52
2021/07/29 06:52:33;;;;;;;7.67;7.27;;;21.20;3.10;;;;;;5029261;28;20304;-54
2021/07/29 06:54:59;;;;;;;8.20;7.70;;;21.20;1.00;;;;;;5029238;28;20432;-52
2021/07/29 06:57:25;;;;;;;7.83;7.33;;;21.20;99.90;;;;;;5028866;28;20187;-52
2021/07/29 06:59:50;;;;;;;7.73;7.23;;;21.30;99.90;;;;;;5029081;28;20183;-49
2021/07/29 07:02:16;;;;;;;7.60;7.20;;;21.50;78.00;;;;;;5029159;28;20190;-54
2021/07/29 07:04:41;;;;;;;8.03;7.63;;;21.60;1.00;;;;;;5028053;28;20182;-48
2021/07/29 07:07:16;;;;;;;7.50;7.10;;;21.50;99.90;;;;;;5028922;28;20191;-51
2021/07/29 07:09:43;;;;;;;7.70;7.20;;;21.60;1.00;;;;;;5028829;28;20895;-50
2021/07/29 07:12:09;;;;;;;7.23;6.80;;;21.50;1.00;;;;;;5028888;28;21428;-52
2021/07/29 07:14:34;;;;;;;7.97;7.47;;;21.70;1.00;;;;;;5026836;28;20450;-50
2021/07/29 07:17:00;;;;;;;8.33;7.73;;;21.80;99.90;;;;;;5028764;28;20441;-52
2021/07/29 07:19:26;;;;;;;8.20;7.57;;;21.90;99.90;;;;;;5027336;28;20189;-53
2021/07/29 07:21:51;;;;;;;7.73;7.23;;;22.00;18.50;;;;;;5028465;28;20311;-53
2021/07/29 07:24:17;;;;;;;7.30;6.90;;;22.10;1.00;;;;;;5027891;28;20679;-56
2021/07/29 07:26:42;;;;;;;7.73;7.23;;;22.10;99.90;;;;;;5011680;28;20639;-52
2021/07/29 07:29:08;;;;;;;7.63;7.23;;;22.10;99.90;;;;;;5018560;28;20210;-55
2021/07/29 07:31:33;;;;;;;7.30;6.70;;;22.20;99.90;;;;;;5020753;28;20205;-53
2021/07/29 07:34:00;;;;;;;7.50;7.00;;;22.20;99.90;;;;;;5027166;28;20212;-51
2021/07/29 07:36:26;;;;;;;7.83;7.33;;;22.20;99.90;;;;;;5025677;28;20646;-54
2021/07/29 07:38:53;;;;;;;8.40;7.90;;;22.30;99.90;;;;;;5026917;28;20468;-56
2021/07/29 07:41:19;;;;;;;7.63;7.23;;;22.30;1.00;;;;;;5027461;28;20191;-54
2021/07/29 07:43:45;;;;;;;8.30;7.80;;;22.40;1.00;;;;;;5026959;28;20423;-56
2021/07/29 07:46:11;;;;;;;8.00;7.60;;;22.50;1.00;;;;;;5027820;28;20426;-50
2021/07/29 07:48:36;;;;;;;8.37;7.87;;;22.60;1.00;;;;;;5015010;28;20439;-49
2021/07/29 07:51:02;;;;;;;7.80;7.30;;;22.70;1.00;;;;;;5026032;28;20215;-50
2021/07/29 07:53:29;;;;;;;7.63;7.23;;;22.80;1.00;;;;;;5027913;28;20693;-53
2021/07/29 07:55:56;;;;;;;7.00;6.47;;;22.80;1.00;;;;;;5027699;28;20232;-53
2021/07/29 07:58:22;;;;;;;6.30;6.00;;;22.80;1.00;;;;;;5028589;28;20491;-54
2021/07/29 08:00:48;;;;;;;6.33;6.03;;;22.80;1.00;;;;;;5033002;28;21256;-51
2021/07/29 08:03:14;;;;;;;6.80;6.30;;;22.90;1.00;;;;;;5024185;28;20440;-51
2021/07/29 08:05:40;;;;;;;7.17;6.67;;;22.90;99.90;;;;;;5027006;28;20446;-52
2021/07/29 08:08:08;;;;;;;6.77;6.37;;;22.90;1.00;;;;;;5028587;28;20422;-50
2021/07/29 08:10:37;;;;;;;6.80;6.40;;;22.90;1.00;;;;;;5021119;28;20207;-53
2021/07/29 08:13:04;;;;;;;6.93;6.53;;;22.90;99.90;;;;;;5028606;28;20419;-48
2021/07/29 08:15:31;;;;;;;6.57;6.20;;;23.00;99.90;;;;;;5025899;28;20788;-51
2021/07/29 08:17:56;;;;;;;7.17;6.77;;;23.10;1.00;;;;;;5028119;28;20431;-52
2021/07/29 08:20:24;;;;;;;6.80;6.30;;;23.10;99.90;;;;;;5026552;28;20818;-51
2021/07/29 08:22:51;;;;;;;6.37;5.97;;;23.30;99.90;;;;;;5027968;28;20197;-53
2021/07/29 08:25:19;;;;;;;6.60;6.10;;;23.30;99.90;;;;;;5026598;28;20526;-52
2021/07/29 08:27:45;;;;;;;6.90;6.50;;;23.20;99.90;;;;;;5028262;28;20423;-53
2021/07/29 08:30:11;;;;;;;6.60;6.20;;;23.20;99.90;;;;;;5021514;28;20442;-51
2021/07/29 08:32:36;;;;;;;6.87;6.40;;;23.20;99.90;;;;;;5028772;28;20248;-49
2021/07/29 08:35:02;;;;;;;6.67;6.27;;;23.30;99.90;;;;;;5024956;28;20194;-46
2021/07/29 08:37:27;;;;;;;6.50;6.10;;;23.30;99.90;;;;;;5027136;28;20313;-51
2021/07/29 08:39:54;;;;;;;6.70;6.30;;;23.40;99.90;;;;;;5027040;28;20178;-47
2021/07/29 08:42:20;;;;;;;6.30;5.80;;;23.50;99.90;;;;;;5027026;28;20339;-50
2021/07/29 08:44:45;;;;;;;7.50;7.00;;;23.80;99.90;;;;;;5027880;28;20899;-52
2021/07/29 08:47:13;;;;;;;6.93;6.43;;;23.60;99.90;;;;;;5028630;28;20181;-51
2021/07/29 08:49:40;;;;;;;6.90;6.50;;;23.70;99.90;;;;;;5030634;28;20644;-53
2021/07/29 08:52:06;;;;;;;7.37;6.87;;;23.80;99.90;;;;;;5031562;28;20479;-51
2021/07/29 08:54:32;;;;;;;7.27;6.77;;;23.80;99.90;;;;;;5030342;28;20433;-56
2021/07/29 08:56:58;;;;;;;7.17;6.77;;;23.90;99.90;;;;;;5031812;28;20185;-47
2021/07/29 08:59:24;;;;;;;7.10;6.53;;;24.00;99.90;;;;;;5030759;28;20185;-49
2021/07/29 09:01:53;;;;;;;7.30;6.90;;;24.10;99.90;;;;;;5031185;28;20827;-53
2021/07/29 09:04:19;;;;;;;6.50;6.10;;;24.30;99.90;;;;;;5029630;28;20190;-53
2021/07/29 09:06:57;;;;;;;6.30;5.90;;;24.40;99.90;;;;;;5031421;28;20436;-49
2021/07/29 09:09:47;;;;;;;6.57;6.17;;;24.40;99.90;;;;;;5029863;28;20248;-47
2021/07/29 09:12:22;;;;;;;7.00;6.50;;;24.40;99.90;;;;;;5029968;28;21153;-52
2021/07/29 09:14:49;;;;;;;6.10;5.80;;;24.60;99.90;;;;;;5030213;28;20432;-53
2021/07/29 09:17:15;;;;;;;7.10;6.70;;;25.00;99.90;;;;;;5029557;28;20425;-51
2021/07/29 09:19:48;;;;;;;6.97;6.57;;;25.30;99.90;;;;;;5031456;28;20430;-53
2021/07/29 09:22:25;;;;;;;6.60;6.30;;;25.60;99.90;;;;;;5030034;28;20397;-51
2021/07/29 09:25:00;;;;;;;7.53;7.03;;;25.90;99.90;;;;;;5029920;28;20418;-49
2021/07/29 09:27:39;;;;;;;6.90;6.40;;;26.20;99.90;;;;;;5030833;28;20410;-51
2021/07/29 09:30:15;;;;;;;7.20;6.80;;;26.50;99.90;;;;;;5029143;28;20454;-52
2021/07/29 09:33:02;;;;;;;7.03;6.63;;;26.80;99.90;;;;;;5021178;28;20445;-54
2021/07/29 09:35:32;;;;;;;7.03;6.53;;;26.40;99.90;;;;;;5029461;28;20447;-48
2021/07/29 09:38:03;;;;;;;7.33;5.90;;;26.30;99.90;;;;;;5030043;28;20422;-50
2021/07/29 09:40:44;;;;;;;7.80;7.23;;;25.90;99.90;;;;;;5028203;28;20463;-51
2021/07/29 09:43:16;;;;;;;7.07;6.67;;;25.90;99.90;;;;;;5030495;28;20433;-47
2021/07/29 09:45:44;;;;;;;7.70;7.20;;;26.00;99.90;;;;;;5025893;28;20451;-52
2021/07/29 09:48:10;;;;;;;6.30;6.00;;;26.40;99.90;;;;;;5029115;28;20429;-50
2021/07/29 09:50:38;;;;;;;6.70;6.37;;;26.80;99.90;;;;;;5025072;28;20517;-50
2021/07/29 09:53:04;;;;;;;6.63;6.23;;;26.80;99.90;;;;;;5028954;28;20444;-50
2021/07/29 09:55:31;;;;;;;7.57;7.00;;;26.60;99.90;;;;;;5028398;28;20428;-52
2021/07/29 09:58:00;;;;;;;7.07;6.67;;;26.60;99.90;;;;;;5029959;28;20450;-49
2021/07/29 10:00:27;;;;;;;7.60;7.13;;;26.50;99.90;;;;;;5029697;28;20475;-50
2021/07/29 10:02:56;;;;;;;9.00;7.30;;;26.20;99.90;;;;;;5030483;28;20480;-54
2021/07/29 10:05:28;;;;;;;7.40;6.90;;;25.90;99.90;;;;;;5027667;28;20975;-51
2021/07/29 10:07:58;;;;;;;7.83;7.33;;;25.80;99.90;;;;;;5028217;28;20472;-52
2021/07/29 10:10:25;;;;;;;7.70;7.20;;;25.50;99.90;;;;;;5025869;28;20469;-49
2021/07/29 10:12:52;;;;;;;7.87;7.37;;;25.50;99.90;;;;;;5029857;28;20476;-53
2021/07/29 10:15:41;;;;;;;7.87;7.30;;;25.60;99.90;;;;;;5028458;28;20855;-54
2021/07/29 10:18:12;;;;;;;7.30;6.90;;;25.60;99.90;;;;;;5030354;28;20403;-49
2021/07/29 10:20:39;;;;;;;7.30;6.80;;;25.60;99.90;;;;;;5029033;28;20458;-47
2021/07/29 10:23:14;;;;;;;8.47;7.90;;;25.60;99.90;;;;;;5027626;28;20434;-49
2021/07/29 10:25:52;;;;;;;7.50;7.00;;;25.80;99.90;;;;;;5029642;28;20453;-54
2021/07/29 10:28:22;;;;;;;7.30;6.90;;;25.80;99.90;;;;;;5029609;28;20422;-54
2021/07/29 10:30:56;;;;;;;8.13;7.63;;;25.60;99.90;;;;;;5035960;28;20468;-52
2021/07/29 10:33:23;;;;;;;8.10;7.50;;;25.60;99.90;;;;;;5033534;28;20842;-52
2021/07/29 10:35:53;;;;;;;7.53;7.03;;;25.60;99.90;;;;;;5028318;28;20467;-53
2021/07/29 10:38:37;;;;;;;7.63;7.13;;;25.40;99.90;;;;;;5028777;28;20409;-51
2021/07/29 10:41:05;;;;;;;7.93;7.13;;;25.20;99.90;;;;;;5028899;28;20847;-54
2021/07/29 10:43:30;;;;;;;7.33;6.93;;;25.10;99.90;;;;;;5029078;28;20554;-52
2021/07/29 10:46:02;;;;;;;8.13;7.60;;;25.10;99.90;;;;;;5028424;28;20510;-50
2021/07/29 10:48:50;;;;;;;7.87;7.47;;;25.10;99.90;;;;;;5027862;28;20240;-50
2021/07/29 10:51:23;;;;;;;7.70;7.20;;;25.10;99.90;;;;;;5023995;28;20826;-48
2021/07/29 10:53:55;;;;;;;7.67;7.17;;;25.20;99.90;;;;;;5024122;28;20440;-53
2021/07/29 10:56:22;;;;;;;7.83;7.33;;;25.20;99.90;;;;;;5025008;28;20489;-50
2021/07/29 10:58:50;;;;;;;6.90;6.50;;;25.20;99.90;;;;;;5027221;28;21003;-51
2021/07/29 11:01:16;;;;;;;7.77;7.27;;;25.30;99.90;;;;;;5026944;28;20531;-52
2021/07/29 11:03:49;;;;;;;7.97;7.50;;;25.30;99.90;;;;;;5024758;28;20686;-51
2021/07/29 11:06:35;;;;;;;7.83;7.40;;;25.50;99.90;;;;;;5022739;28;20735;-51
2021/07/29 11:09:14;;;;;;;8.20;7.60;;;25.30;99.90;;;;;;5025990;28;20986;-53
2021/07/29 11:11:40;;;;;;;7.33;6.93;;;25.30;99.90;;;;;;5024343;28;20464;-51
2021/07/29 11:14:07;;;;;;;8.10;7.57;;;25.10;99.90;;;;;;5026216;28;20409;-53
2021/07/29 11:16:33;;;;;;;7.43;7.00;;;25.20;99.90;;;;;;5025390;28;20799;-47
2021/07/29 11:19:00;;;;;;;7.50;7.00;;;25.50;99.90;;;;;;5018019;28;20498;-51
2021/07/29 11:21:26;;;;;;;7.60;7.10;;;26.30;99.90;;;;;;5010570;28;20430;-47
2021/07/29 11:23:52;;;;;;;7.83;7.27;;;26.40;99.90;;;;;;5011077;28;20420;-51
2021/07/29 11:26:17;;;;;;;8.00;7.50;;;27.10;99.90;;;;;;5011291;28;20194;-50
2021/07/29 11:28:43;;;;;;;7.27;6.77;;;27.60;99.90;;;;;;5020669;28;20220;-52
2021/07/29 11:31:09;;;;;;;8.60;7.90;;;28.00;99.90;;;;;;5035578;28;20785;-51
2021/07/29 11:33:35;;;;;;;7.57;7.17;;;27.80;99.90;;;;;;5032258;28;20420;-54
2021/07/29 11:36:08;;;;;;;7.80;7.40;;;27.60;99.90;;;;;;5029223;28;20425;-53
2021/07/29 11:38:34;;;;;;;8.23;7.73;;;27.30;99.90;;;;;;5029091;28;20214;-50
2021/07/29 11:41:02;;;;;;;7.70;7.30;;;26.50;99.90;;;;;;5028851;28;20423;-50
2021/07/29 11:43:30;;;;;;;8.43;7.60;;;26.20;99.90;;;;;;5029657;28;20472;-51
2021/07/29 11:46:10;;;;;;;7.23;6.83;;;26.30;99.90;;;;;;5030020;28;20415;-51
2021/07/29 11:48:37;;;;;;;7.37;6.97;;;26.30;99.90;;;;;;5024199;28;20425;-54
2021/07/29 11:51:16;;;;;;;7.90;7.30;;;26.30;99.90;;;;;;5029724;28;20459;-49
2021/07/29 11:53:43;;;;;;;7.43;7.03;;;26.60;99.90;;;;;;5028494;28;20450;-54
2021/07/29 11:56:13;;;;;;;7.93;7.43;;;27.60;99.90;;;;;;5029269;28;20427;-54
2021/07/29 11:58:40;;;;;;;7.27;6.87;;;28.30;99.90;;;;;;5029445;28;20423;-53
2021/07/29 12:01:12;;;;;;;7.57;7.07;;;28.90;99.90;;;;;;5029575;28;20505;-54
2021/07/29 12:03:42;;;;;;;7.33;6.93;;;29.40;99.90;;;;;;5021073;28;20433;-49
2021/07/29 12:06:08;;;;;;;6.63;6.13;;;30.10;99.90;;;;;;5024278;28;21152;-51
2021/07/29 12:08:37;;;;;;;7.70;7.10;;;30.60;99.90;;;;;;5026388;28;20515;-50
2021/07/29 12:11:03;;;;;;;7.23;6.67;;;30.40;99.90;;;;;;5025384;28;20974;-53
2021/07/29 12:13:30;;;;;;;7.37;6.97;;;30.40;99.90;;;;;;5027611;28;20795;-51
2021/07/29 12:15:59;;;;;;;7.50;7.00;;;30.60;99.90;;;;;;5026897;28;20407;-52
2021/07/29 12:18:25;;;;;;;7.17;6.77;;;30.20;99.90;;;;;;5025964;28;20416;-54
2021/07/29 12:20:54;;;;;;;6.27;5.90;;;30.20;99.90;;;;;;5026210;28;20441;-56
2021/07/29 12:23:20;;;;;;;7.23;6.83;;;30.30;99.90;;;;;;5028201;28;20417;-51
2021/07/29 12:25:46;;;;;;;7.43;6.90;;;30.50;99.90;;;;;;5031013;28;20477;-52
2021/07/29 12:28:13;;;;;;;7.53;7.13;;;30.30;99.90;;;;;;5025741;28;20750;-54
2021/07/29 12:30:42;;;;;;;7.50;7.10;;;30.90;99.90;;;;;;5032284;28;20534;-53
2021/07/29 12:33:09;;;;;;;6.70;6.40;;;31.70;99.90;;;;;;5031019;28;20463;-49
2021/07/29 12:35:36;;;;;;;6.77;6.30;;;32.40;99.90;;;;;;5031712;28;20431;-50
2021/07/29 12:38:01;;;;;;;6.53;6.13;;;31.80;99.90;;;;;;5031989;28;20771;-51
2021/07/29 12:40:32;;;;;;;6.20;5.90;;;31.70;99.90;;;;;;5030234;28;20456;-49
2021/07/29 12:43:24;;;;;;;6.77;6.20;;;30.90;99.90;;;;;;5032090;28;20519;-50
2021/07/29 12:45:52;;;;;;;6.33;6.03;;;29.60;99.90;;;;;;5030861;28;20771;-53
2021/07/29 12:48:17;;;;;;;6.50;6.10;;;29.90;99.90;;;;;;5025354;28;20436;-53